sensor_id;sensor_type;location;lat;lon;timestamp;P1;durP1;ratioP1;P2;durP2;ratioP2
75890;SDS011;64571;47.512;19.054;2023-08-30T00:02:36;4.55;;;2.25;;
75890;SDS011;64571;47.512;19.054;2023-08-30T00:05:39;5.53;;;2.30;;
75890;SDS011;64571;47.512;19.054;2023-08-30T00:08:42;4.78;;;2.25;;
75890;SDS011;64571;47.512;19.054;2023-08-30T00:11:45;5.37;;;2.50;;
75890;SDS011;64571;47.512;19.054;2023-08-30T00:14:47;5.20;;;1.92;;
75890;SDS011;64571;47.512;19.054;2023-08-30T00:17:50;4.87;;;1.70;;
75890;SDS011;64571;47.512;19.054;2023-08-30T00:20:56;4.40;;;2.00;;
75890;SDS011;64571;47.512;19.054;2023-08-30T00:23:59;4.60;;;2.50;;
75890;SDS011;64571;47.512;19.054;2023-08-30T00:27:02;6.40;;;2.60;;
75890;SDS011;64571;47.512;19.054;2023-08-30T00:30:05;5.22;;;2.30;;
75890;SDS011;64571;47.512;19.054;2023-08-30T00:33:10;5.53;;;2.37;;
75890;SDS011;64571;47.512;19.054;2023-08-30T00:36:13;5.87;;;2.40;;
75890;SDS011;64571;47.512;19.054;2023-08-30T00:39:15;4.93;;;2.20;;
75890;SDS011;64571;47.512;19.054;2023-08-30T00:42:18;5.03;;;2.30;;
75890;SDS011;64571;47.512;19.054;2023-08-30T00:45:20;6.10;;;2.58;;
75890;SDS011;64571;47.512;19.054;2023-08-30T00:48:23;5.62;;;3.00;;
75890;SDS011;64571;47.512;19.054;2023-08-30T00:51:26;5.68;;;2.87;;
75890;SDS011;64571;47.512;19.054;2023-08-30T00:54:29;4.60;;;2.33;;
75890;SDS011;64571;47.512;19.054;2023-08-30T00:57:32;6.70;;;2.33;;
75890;SDS011;64571;47.512;19.054;2023-08-30T01:00:35;5.50;;;2.55;;
75890;SDS011;64571;47.512;19.054;2023-08-30T01:03:38;6.80;;;2.30;;
75890;SDS011;64571;47.512;19.054;2023-08-30T01:06:41;5.00;;;2.58;;
75890;SDS011;64571;47.512;19.054;2023-08-30T01:09:43;5.45;;;2.40;;
75890;SDS011;64571;47.512;19.054;2023-08-30T01:12:47;5.73;;;2.47;;
75890;SDS011;64571;47.512;19.054;2023-08-30T01:15:55;5.80;;;2.83;;
75890;SDS011;64571;47.512;19.054;2023-08-30T01:18:58;5.75;;;2.17;;
75890;SDS011;64571;47.512;19.054;2023-08-30T01:26:03;5.03;;;2.67;;
75890;SDS011;64571;47.512;19.054;2023-08-30T01:29:12;5.00;;;2.63;;
75890;SDS011;64571;47.512;19.054;2023-08-30T01:32:19;7.35;;;2.70;;
75890;SDS011;64571;47.512;19.054;2023-08-30T01:35:22;5.97;;;3.08;;
75890;SDS011;64571;47.512;19.054;2023-08-30T01:38:27;5.60;;;2.50;;
75890;SDS011;64571;47.512;19.054;2023-08-30T01:41:31;4.65;;;2.20;;
75890;SDS011;64571;47.512;19.054;2023-08-30T01:44:35;4.50;;;2.10;;
75890;SDS011;64571;47.512;19.054;2023-08-30T01:47:41;4.70;;;1.90;;
75890;SDS011;64571;47.512;19.054;2023-08-30T01:50:45;5.30;;;2.55;;
75890;SDS011;64571;47.512;19.054;2023-08-30T01:53:49;6.35;;;3.22;;
75890;SDS011;64571;47.512;19.054;2023-08-30T01:56:55;5.82;;;2.97;;
75890;SDS011;64571;47.512;19.054;2023-08-30T02:00:00;6.73;;;3.20;;
75890;SDS011;64571;47.512;19.054;2023-08-30T02:03:09;6.43;;;3.10;;
75890;SDS011;64571;47.512;19.054;2023-08-30T02:06:21;6.22;;;2.85;;
75890;SDS011;64571;47.512;19.054;2023-08-30T02:12:59;6.28;;;3.35;;
75890;SDS011;64571;47.512;19.054;2023-08-30T02:16:04;7.17;;;2.77;;
75890;SDS011;64571;47.512;19.054;2023-08-30T02:19:08;7.15;;;3.62;;
75890;SDS011;64571;47.512;19.054;2023-08-30T02:22:11;5.97;;;3.35;;
75890;SDS011;64571;47.512;19.054;2023-08-30T02:25:15;6.47;;;3.58;;
75890;SDS011;64571;47.512;19.054;2023-08-30T02:28:20;9.20;;;4.25;;
75890;SDS011;64571;47.512;19.054;2023-08-30T02:31:24;6.83;;;4.03;;
75890;SDS011;64571;47.512;19.054;2023-08-30T02:34:26;7.82;;;4.72;;
75890;SDS011;64571;47.512;19.054;2023-08-30T02:37:29;8.07;;;4.87;;
75890;SDS011;64571;47.512;19.054;2023-08-30T02:40:32;10.73;;;4.82;;
75890;SDS011;64571;47.512;19.054;2023-08-30T02:43:35;8.32;;;4.68;;
75890;SDS011;64571;47.512;19.054;2023-08-30T02:46:37;9.70;;;5.17;;
75890;SDS011;64571;47.512;19.054;2023-08-30T02:49:40;7.97;;;4.47;;
75890;SDS011;64571;47.512;19.054;2023-08-30T02:52:43;9.40;;;5.12;;
75890;SDS011;64571;47.512;19.054;2023-08-30T02:55:46;11.18;;;5.40;;
75890;SDS011;64571;47.512;19.054;2023-08-30T02:58:50;10.90;;;5.65;;
75890;SDS011;64571;47.512;19.054;2023-08-30T03:01:52;11.37;;;6.17;;
75890;SDS011;64571;47.512;19.054;2023-08-30T03:04:55;12.80;;;5.75;;
75890;SDS011;64571;47.512;19.054;2023-08-30T03:07:58;10.55;;;5.72;;
75890;SDS011;64571;47.512;19.054;2023-08-30T03:11:07;11.50;;;5.30;;
75890;SDS011;64571;47.512;19.054;2023-08-30T03:14:12;12.50;;;5.60;;
75890;SDS011;64571;47.512;19.054;2023-08-30T03:17:15;10.20;;;5.37;;
75890;SDS011;64571;47.512;19.054;2023-08-30T03:20:18;11.15;;;6.50;;
75890;SDS011;64571;47.512;19.054;2023-08-30T03:23:21;11.48;;;6.20;;
75890;SDS011;64571;47.512;19.054;2023-08-30T03:26:23;10.05;;;5.37;;
75890;SDS011;64571;47.512;19.054;2023-08-30T03:29:28;10.73;;;5.85;;
75890;SDS011;64571;47.512;19.054;2023-08-30T03:32:31;11.90;;;6.03;;
75890;SDS011;64571;47.512;19.054;2023-08-30T03:35:35;9.52;;;5.47;;
75890;SDS011;64571;47.512;19.054;2023-08-30T03:38:38;11.73;;;5.18;;
75890;SDS011;64571;47.512;19.054;2023-08-30T03:41:41;10.65;;;5.53;;
75890;SDS011;64571;47.512;19.054;2023-08-30T03:44:43;9.80;;;5.28;;
75890;SDS011;64571;47.512;19.054;2023-08-30T03:47:46;9.77;;;5.60;;
75890;SDS011;64571;47.512;19.054;2023-08-30T03:50:49;11.35;;;5.53;;
75890;SDS011;64571;47.512;19.054;2023-08-30T03:53:52;12.15;;;5.62;;
75890;SDS011;64571;47.512;19.054;2023-08-30T03:56:54;11.00;;;5.32;;
75890;SDS011;64571;47.512;19.054;2023-08-30T03:59:57;10.60;;;4.85;;
75890;SDS011;64571;47.512;19.054;2023-08-30T04:03:00;9.03;;;5.03;;
75890;SDS011;64571;47.512;19.054;2023-08-30T04:06:03;10.95;;;5.75;;
75890;SDS011;64571;47.512;19.054;2023-08-30T04:09:05;9.38;;;5.00;;
75890;SDS011;64571;47.512;19.054;2023-08-30T04:12:08;10.88;;;5.50;;
75890;SDS011;64571;47.512;19.054;2023-08-30T04:15:10;10.95;;;5.35;;
75890;SDS011;64571;47.512;19.054;2023-08-30T04:18:15;9.97;;;4.77;;
75890;SDS011;64571;47.512;19.054;2023-08-30T04:21:19;10.73;;;4.93;;
75890;SDS011;64571;47.512;19.054;2023-08-30T04:24:22;10.55;;;5.15;;
75890;SDS011;64571;47.512;19.054;2023-08-30T04:27:24;9.93;;;5.47;;
75890;SDS011;64571;47.512;19.054;2023-08-30T04:30:27;10.55;;;5.60;;
75890;SDS011;64571;47.512;19.054;2023-08-30T04:33:29;15.13;;;5.50;;
75890;SDS011;64571;47.512;19.054;2023-08-30T04:36:32;9.82;;;4.57;;
75890;SDS011;64571;47.512;19.054;2023-08-30T04:39:34;12.50;;;5.70;;
75890;SDS011;64571;47.512;19.054;2023-08-30T04:42:37;13.32;;;6.07;;
75890;SDS011;64571;47.512;19.054;2023-08-30T04:45:42;11.32;;;5.37;;
75890;SDS011;64571;47.512;19.054;2023-08-30T04:48:48;11.73;;;6.00;;
75890;SDS011;64571;47.512;19.054;2023-08-30T04:51:51;11.23;;;5.70;;
75890;SDS011;64571;47.512;19.054;2023-08-30T04:54:54;10.68;;;5.07;;
75890;SDS011;64571;47.512;19.054;2023-08-30T04:57:56;12.05;;;5.87;;
75890;SDS011;64571;47.512;19.054;2023-08-30T05:01:00;11.30;;;5.82;;
75890;SDS011;64571;47.512;19.054;2023-08-30T05:04:04;12.23;;;5.20;;
75890;SDS011;64571;47.512;19.054;2023-08-30T05:07:08;11.52;;;5.70;;
75890;SDS011;64571;47.512;19.054;2023-08-30T05:10:11;11.65;;;5.75;;
75890;SDS011;64571;47.512;19.054;2023-08-30T05:13:16;11.12;;;5.55;;
75890;SDS011;64571;47.512;19.054;2023-08-30T05:16:18;12.10;;;6.15;;
75890;SDS011;64571;47.512;19.054;2023-08-30T05:19:22;12.87;;;6.50;;
75890;SDS011;64571;47.512;19.054;2023-08-30T05:22:25;13.85;;;7.00;;
75890;SDS011;64571;47.512;19.054;2023-08-30T05:25:28;14.02;;;7.03;;
75890;SDS011;64571;47.512;19.054;2023-08-30T05:28:31;11.60;;;6.20;;
75890;SDS011;64571;47.512;19.054;2023-08-30T05:31:34;14.77;;;5.97;;
75890;SDS011;64571;47.512;19.054;2023-08-30T05:34:37;11.33;;;5.90;;
75890;SDS011;64571;47.512;19.054;2023-08-30T05:37:40;14.18;;;6.20;;
75890;SDS011;64571;47.512;19.054;2023-08-30T05:40:45;19.05;;;6.25;;
75890;SDS011;64571;47.512;19.054;2023-08-30T05:43:48;11.10;;;5.95;;
75890;SDS011;64571;47.512;19.054;2023-08-30T05:46:51;12.98;;;6.95;;
75890;SDS011;64571;47.512;19.054;2023-08-30T05:49:53;12.17;;;6.47;;
75890;SDS011;64571;47.512;19.054;2023-08-30T05:52:56;13.60;;;6.35;;
75890;SDS011;64571;47.512;19.054;2023-08-30T05:55:59;12.52;;;7.03;;
75890;SDS011;64571;47.512;19.054;2023-08-30T05:59:01;16.40;;;7.62;;
75890;SDS011;64571;47.512;19.054;2023-08-30T06:02:04;14.73;;;6.82;;
75890;SDS011;64571;47.512;19.054;2023-08-30T06:05:08;14.53;;;7.13;;
75890;SDS011;64571;47.512;19.054;2023-08-30T06:08:10;13.70;;;6.55;;
75890;SDS011;64571;47.512;19.054;2023-08-30T06:11:14;12.20;;;6.65;;
75890;SDS011;64571;47.512;19.054;2023-08-30T06:14:17;15.30;;;7.37;;
75890;SDS011;64571;47.512;19.054;2023-08-30T06:17:20;11.52;;;6.95;;
75890;SDS011;64571;47.512;19.054;2023-08-30T06:20:23;13.67;;;7.10;;
75890;SDS011;64571;47.512;19.054;2023-08-30T06:23:26;13.48;;;7.57;;
75890;SDS011;64571;47.512;19.054;2023-08-30T06:26:28;12.90;;;6.57;;
75890;SDS011;64571;47.512;19.054;2023-08-30T06:29:31;13.38;;;7.03;;
75890;SDS011;64571;47.512;19.054;2023-08-30T06:32:34;11.93;;;6.80;;
75890;SDS011;64571;47.512;19.054;2023-08-30T06:35:37;11.13;;;6.20;;
75890;SDS011;64571;47.512;19.054;2023-08-30T06:38:41;11.68;;;6.57;;
75890;SDS011;64571;47.512;19.054;2023-08-30T06:41:44;13.15;;;7.55;;
75890;SDS011;64571;47.512;19.054;2023-08-30T06:44:48;14.13;;;7.15;;
75890;SDS011;64571;47.512;19.054;2023-08-30T06:47:51;13.10;;;6.65;;
75890;SDS011;64571;47.512;19.054;2023-08-30T06:50:57;13.17;;;7.60;;
75890;SDS011;64571;47.512;19.054;2023-08-30T06:54:01;12.25;;;7.30;;
75890;SDS011;64571;47.512;19.054;2023-08-30T06:57:04;16.83;;;8.40;;
75890;SDS011;64571;47.512;19.054;2023-08-30T07:00:09;14.10;;;7.12;;
75890;SDS011;64571;47.512;19.054;2023-08-30T07:03:12;12.43;;;7.45;;
75890;SDS011;64571;47.512;19.054;2023-08-30T07:06:15;15.17;;;6.53;;
75890;SDS011;64571;47.512;19.054;2023-08-30T07:09:18;13.48;;;7.35;;
75890;SDS011;64571;47.512;19.054;2023-08-30T07:12:25;13.55;;;7.35;;
75890;SDS011;64571;47.512;19.054;2023-08-30T07:15:27;12.35;;;7.28;;
75890;SDS011;64571;47.512;19.054;2023-08-30T07:18:30;12.00;;;6.75;;
75890;SDS011;64571;47.512;19.054;2023-08-30T07:21:33;15.97;;;7.07;;
75890;SDS011;64571;47.512;19.054;2023-08-30T07:24:40;13.43;;;8.02;;
75890;SDS011;64571;47.512;19.054;2023-08-30T07:27:42;12.37;;;6.82;;
75890;SDS011;64571;47.512;19.054;2023-08-30T07:30:45;14.80;;;7.55;;
75890;SDS011;64571;47.512;19.054;2023-08-30T07:33:48;12.85;;;7.72;;
75890;SDS011;64571;47.512;19.054;2023-08-30T07:36:53;13.77;;;7.50;;
75890;SDS011;64571;47.512;19.054;2023-08-30T07:39:58;12.90;;;8.35;;
75890;SDS011;64571;47.512;19.054;2023-08-30T07:43:00;14.85;;;8.13;;
75890;SDS011;64571;47.512;19.054;2023-08-30T07:46:03;11.63;;;7.50;;
75890;SDS011;64571;47.512;19.054;2023-08-30T07:49:06;13.60;;;7.85;;
75890;SDS011;64571;47.512;19.054;2023-08-30T07:52:10;12.67;;;8.30;;
75890;SDS011;64571;47.512;19.054;2023-08-30T07:55:15;13.35;;;7.47;;
75890;SDS011;64571;47.512;19.054;2023-08-30T07:58:18;12.18;;;7.30;;
75890;SDS011;64571;47.512;19.054;2023-08-30T08:01:20;12.82;;;7.30;;
75890;SDS011;64571;47.512;19.054;2023-08-30T08:04:23;11.50;;;6.72;;
75890;SDS011;64571;47.512;19.054;2023-08-30T08:07:26;13.57;;;7.60;;
75890;SDS011;64571;47.512;19.054;2023-08-30T08:10:33;11.82;;;6.57;;
75890;SDS011;64571;47.512;19.054;2023-08-30T08:13:36;12.77;;;7.53;;
75890;SDS011;64571;47.512;19.054;2023-08-30T08:16:39;13.23;;;7.12;;
75890;SDS011;64571;47.512;19.054;2023-08-30T08:19:42;12.23;;;6.97;;
75890;SDS011;64571;47.512;19.054;2023-08-30T08:22:46;12.47;;;6.80;;
75890;SDS011;64571;47.512;19.054;2023-08-30T08:25:56;12.75;;;7.07;;
75890;SDS011;64571;47.512;19.054;2023-08-30T08:29:00;14.50;;;7.22;;
75890;SDS011;64571;47.512;19.054;2023-08-30T08:32:02;13.80;;;7.55;;
75890;SDS011;64571;47.512;19.054;2023-08-30T08:35:05;14.48;;;7.55;;
75890;SDS011;64571;47.512;19.054;2023-08-30T08:38:08;19.03;;;8.80;;
75890;SDS011;64571;47.512;19.054;2023-08-30T08:41:12;12.20;;;6.97;;
75890;SDS011;64571;47.512;19.054;2023-08-30T08:44:17;12.27;;;7.45;;
75890;SDS011;64571;47.512;19.054;2023-08-30T08:47:21;11.15;;;7.30;;
75890;SDS011;64571;47.512;19.054;2023-08-30T08:50:24;11.88;;;6.60;;
75890;SDS011;64571;47.512;19.054;2023-08-30T08:53:30;12.53;;;7.30;;
75890;SDS011;64571;47.512;19.054;2023-08-30T08:56:32;9.90;;;6.05;;
75890;SDS011;64571;47.512;19.054;2023-08-30T08:59:36;11.88;;;6.70;;
75890;SDS011;64571;47.512;19.054;2023-08-30T09:02:39;9.65;;;6.05;;
75890;SDS011;64571;47.512;19.054;2023-08-30T09:05:44;12.37;;;6.03;;
75890;SDS011;64571;47.512;19.054;2023-08-30T09:08:48;12.63;;;5.77;;
75890;SDS011;64571;47.512;19.054;2023-08-30T09:11:51;13.88;;;6.62;;
75890;SDS011;64571;47.512;19.054;2023-08-30T09:14:56;10.18;;;6.47;;
75890;SDS011;64571;47.512;19.054;2023-08-30T09:17:59;10.52;;;5.90;;
75890;SDS011;64571;47.512;19.054;2023-08-30T09:21:10;9.70;;;5.65;;
75890;SDS011;64571;47.512;19.054;2023-08-30T09:24:13;11.00;;;6.20;;
75890;SDS011;64571;47.512;19.054;2023-08-30T09:27:16;10.25;;;6.32;;
75890;SDS011;64571;47.512;19.054;2023-08-30T09:30:23;11.63;;;5.87;;
75890;SDS011;64571;47.512;19.054;2023-08-30T09:33:29;10.10;;;6.65;;
75890;SDS011;64571;47.512;19.054;2023-08-30T09:36:40;13.80;;;7.37;;
75890;SDS011;64571;47.512;19.054;2023-08-30T09:39:48;15.17;;;6.27;;
75890;SDS011;64571;47.512;19.054;2023-08-30T09:42:51;13.82;;;6.55;;
75890;SDS011;64571;47.512;19.054;2023-08-30T09:46:12;11.23;;;5.68;;
75890;SDS011;64571;47.512;19.054;2023-08-30T09:49:17;11.48;;;6.40;;
75890;SDS011;64571;47.512;19.054;2023-08-30T09:52:22;9.98;;;4.90;;
75890;SDS011;64571;47.512;19.054;2023-08-30T09:55:27;9.03;;;5.43;;
75890;SDS011;64571;47.512;19.054;2023-08-30T09:58:31;9.18;;;5.28;;
75890;SDS011;64571;47.512;19.054;2023-08-30T10:01:34;10.25;;;5.85;;
75890;SDS011;64571;47.512;19.054;2023-08-30T10:04:38;9.88;;;5.07;;
75890;SDS011;64571;47.512;19.054;2023-08-30T10:07:44;10.13;;;5.82;;
75890;SDS011;64571;47.512;19.054;2023-08-30T10:10:48;9.77;;;5.60;;
75890;SDS011;64571;47.512;19.054;2023-08-30T10:13:52;10.60;;;5.28;;
75890;SDS011;64571;47.512;19.054;2023-08-30T10:17:02;12.63;;;5.50;;
75890;SDS011;64571;47.512;19.054;2023-08-30T10:20:06;10.88;;;5.37;;
75890;SDS011;64571;47.512;19.054;2023-08-30T10:23:09;8.70;;;4.68;;
75890;SDS011;64571;47.512;19.054;2023-08-30T10:26:13;9.40;;;4.80;;
75890;SDS011;64571;47.512;19.054;2023-08-30T10:29:18;8.27;;;4.85;;
75890;SDS011;64571;47.512;19.054;2023-08-30T10:32:22;10.02;;;5.47;;
75890;SDS011;64571;47.512;19.054;2023-08-30T10:35:25;11.25;;;5.07;;
75890;SDS011;64571;47.512;19.054;2023-08-30T10:38:28;9.45;;;4.82;;
75890;SDS011;64571;47.512;19.054;2023-08-30T10:41:31;8.93;;;4.70;;
75890;SDS011;64571;47.512;19.054;2023-08-30T10:44:33;10.82;;;5.18;;
75890;SDS011;64571;47.512;19.054;2023-08-30T10:47:46;8.43;;;4.07;;
75890;SDS011;64571;47.512;19.054;2023-08-30T10:50:57;8.77;;;4.20;;
75890;SDS011;64571;47.512;19.054;2023-08-30T10:54:00;9.80;;;4.20;;
75890;SDS011;64571;47.512;19.054;2023-08-30T10:57:02;10.43;;;4.63;;
75890;SDS011;64571;47.512;19.054;2023-08-30T11:03:16;10.35;;;4.00;;
75890;SDS011;64571;47.512;19.054;2023-08-30T11:06:19;7.15;;;3.80;;
75890;SDS011;64571;47.512;19.054;2023-08-30T11:09:23;7.18;;;4.12;;
75890;SDS011;64571;47.512;19.054;2023-08-30T11:12:27;8.00;;;3.93;;
75890;SDS011;64571;47.512;19.054;2023-08-30T11:15:32;7.57;;;3.60;;
75890;SDS011;64571;47.512;19.054;2023-08-30T11:18:38;6.75;;;3.40;;
75890;SDS011;64571;47.512;19.054;2023-08-30T11:21:43;5.60;;;3.00;;
75890;SDS011;64571;47.512;19.054;2023-08-30T11:24:47;6.75;;;2.85;;
75890;SDS011;64571;47.512;19.054;2023-08-30T11:27:51;5.80;;;2.90;;
75890;SDS011;64571;47.512;19.054;2023-08-30T11:31:04;8.25;;;3.33;;
75890;SDS011;64571;47.512;19.054;2023-08-30T11:34:07;6.47;;;2.97;;
75890;SDS011;64571;47.512;19.054;2023-08-30T11:37:10;6.47;;;3.37;;
75890;SDS011;64571;47.512;19.054;2023-08-30T11:40:12;8.27;;;4.05;;
75890;SDS011;64571;47.512;19.054;2023-08-30T11:43:16;5.33;;;2.93;;
75890;SDS011;64571;47.512;19.054;2023-08-30T11:46:19;4.80;;;2.70;;
75890;SDS011;64571;47.512;19.054;2023-08-30T11:49:22;5.93;;;3.28;;
75890;SDS011;64571;47.512;19.054;2023-08-30T11:52:25;6.32;;;3.22;;
75890;SDS011;64571;47.512;19.054;2023-08-30T11:55:30;7.85;;;3.75;;
75890;SDS011;64571;47.512;19.054;2023-08-30T11:58:33;5.87;;;3.47;;
75890;SDS011;64571;47.512;19.054;2023-08-30T12:01:36;8.10;;;3.15;;
75890;SDS011;64571;47.512;19.054;2023-08-30T12:04:43;6.90;;;4.10;;
75890;SDS011;64571;47.512;19.054;2023-08-30T12:07:47;7.18;;;3.87;;
75890;SDS011;64571;47.512;19.054;2023-08-30T12:10:51;6.15;;;3.30;;
75890;SDS011;64571;47.512;19.054;2023-08-30T12:14:00;5.43;;;2.97;;
75890;SDS011;64571;47.512;19.054;2023-08-30T12:17:04;6.43;;;3.92;;
75890;SDS011;64571;47.512;19.054;2023-08-30T12:20:17;6.78;;;3.53;;
75890;SDS011;64571;47.512;19.054;2023-08-30T12:23:23;8.15;;;3.58;;
75890;SDS011;64571;47.512;19.054;2023-08-30T12:26:31;6.25;;;3.70;;
75890;SDS011;64571;47.512;19.054;2023-08-30T12:29:35;7.00;;;3.10;;
75890;SDS011;64571;47.512;19.054;2023-08-30T12:32:38;5.43;;;3.25;;
75890;SDS011;64571;47.512;19.054;2023-08-30T12:35:41;6.97;;;3.10;;
75890;SDS011;64571;47.512;19.054;2023-08-30T12:38:43;7.40;;;3.05;;
75890;SDS011;64571;47.512;19.054;2023-08-30T12:41:46;5.93;;;3.47;;
75890;SDS011;64571;47.512;19.054;2023-08-30T12:44:49;6.53;;;3.80;;
75890;SDS011;64571;47.512;19.054;2023-08-30T12:47:52;6.15;;;3.40;;
75890;SDS011;64571;47.512;19.054;2023-08-30T12:50:54;6.07;;;3.10;;
75890;SDS011;64571;47.512;19.054;2023-08-30T12:53:58;6.95;;;4.00;;
75890;SDS011;64571;47.512;19.054;2023-08-30T12:57:00;6.28;;;3.55;;
75890;SDS011;64571;47.512;19.054;2023-08-30T13:00:03;6.23;;;3.70;;
75890;SDS011;64571;47.512;19.054;2023-08-30T13:03:07;6.05;;;3.28;;
75890;SDS011;64571;47.512;19.054;2023-08-30T13:06:10;5.55;;;3.00;;
75890;SDS011;64571;47.512;19.054;2023-08-30T13:09:13;4.78;;;2.65;;
75890;SDS011;64571;47.512;19.054;2023-08-30T13:12:15;6.53;;;3.08;;
75890;SDS011;64571;47.512;19.054;2023-08-30T13:15:19;5.60;;;2.77;;
75890;SDS011;64571;47.512;19.054;2023-08-30T13:18:21;5.50;;;3.40;;
75890;SDS011;64571;47.512;19.054;2023-08-30T13:21:24;10.88;;;3.25;;
75890;SDS011;64571;47.512;19.054;2023-08-30T13:24:40;5.40;;;3.30;;
75890;SDS011;64571;47.512;19.054;2023-08-30T13:27:43;5.30;;;3.17;;
75890;SDS011;64571;47.512;19.054;2023-08-30T13:30:46;6.43;;;2.87;;
75890;SDS011;64571;47.512;19.054;2023-08-30T13:33:49;5.75;;;2.58;;
75890;SDS011;64571;47.512;19.054;2023-08-30T13:36:52;5.72;;;2.80;;
75890;SDS011;64571;47.512;19.054;2023-08-30T13:39:54;10.48;;;3.75;;
75890;SDS011;64571;47.512;19.054;2023-08-30T13:42:57;6.22;;;2.58;;
75890;SDS011;64571;47.512;19.054;2023-08-30T13:46:00;5.00;;;2.53;;
75890;SDS011;64571;47.512;19.054;2023-08-30T13:49:03;5.32;;;2.87;;
75890;SDS011;64571;47.512;19.054;2023-08-30T13:52:05;5.95;;;3.17;;
75890;SDS011;64571;47.512;19.054;2023-08-30T13:55:08;6.68;;;3.00;;
75890;SDS011;64571;47.512;19.054;2023-08-30T13:58:11;5.85;;;2.22;;
75890;SDS011;64571;47.512;19.054;2023-08-30T14:01:13;5.70;;;2.60;;
75890;SDS011;64571;47.512;19.054;2023-08-30T14:04:16;6.12;;;3.30;;
75890;SDS011;64571;47.512;19.054;2023-08-30T14:07:19;6.47;;;3.62;;
75890;SDS011;64571;47.512;19.054;2023-08-30T14:10:22;6.90;;;3.72;;
75890;SDS011;64571;47.512;19.054;2023-08-30T14:13:25;6.43;;;3.37;;
75890;SDS011;64571;47.512;19.054;2023-08-30T14:16:30;7.97;;;3.87;;
75890;SDS011;64571;47.512;19.054;2023-08-30T14:19:36;6.22;;;3.55;;
75890;SDS011;64571;47.512;19.054;2023-08-30T14:22:39;6.95;;;4.22;;
75890;SDS011;64571;47.512;19.054;2023-08-30T14:25:41;5.97;;;3.53;;
75890;SDS011;64571;47.512;19.054;2023-08-30T14:28:44;5.50;;;3.08;;
75890;SDS011;64571;47.512;19.054;2023-08-30T14:31:46;5.50;;;2.90;;
75890;SDS011;64571;47.512;19.054;2023-08-30T14:34:49;5.50;;;2.40;;
75890;SDS011;64571;47.512;19.054;2023-08-30T14:37:52;6.65;;;3.25;;
75890;SDS011;64571;47.512;19.054;2023-08-30T14:40:55;9.57;;;2.72;;
75890;SDS011;64571;47.512;19.054;2023-08-30T14:43:58;6.68;;;3.15;;
75890;SDS011;64571;47.512;19.054;2023-08-30T14:47:01;6.10;;;2.83;;
75890;SDS011;64571;47.512;19.054;2023-08-30T14:50:04;5.70;;;2.58;;
75890;SDS011;64571;47.512;19.054;2023-08-30T14:53:07;6.37;;;2.80;;
75890;SDS011;64571;47.512;19.054;2023-08-30T14:56:09;6.78;;;2.80;;
75890;SDS011;64571;47.512;19.054;2023-08-30T14:59:13;6.25;;;3.00;;
75890;SDS011;64571;47.512;19.054;2023-08-30T15:02:16;7.90;;;3.83;;
75890;SDS011;64571;47.512;19.054;2023-08-30T15:05:19;5.50;;;2.80;;
75890;SDS011;64571;47.512;19.054;2023-08-30T15:08:22;6.85;;;2.85;;
75890;SDS011;64571;47.512;19.054;2023-08-30T15:11:25;5.55;;;2.70;;
75890;SDS011;64571;47.512;19.054;2023-08-30T15:14:28;10.73;;;2.67;;
75890;SDS011;64571;47.512;19.054;2023-08-30T15:17:30;7.43;;;3.90;;
75890;SDS011;64571;47.512;19.054;2023-08-30T15:20:33;7.43;;;2.33;;
75890;SDS011;64571;47.512;19.054;2023-08-30T15:23:36;5.65;;;2.10;;
75890;SDS011;64571;47.512;19.054;2023-08-30T15:26:39;4.95;;;2.10;;
75890;SDS011;64571;47.512;19.054;2023-08-30T15:29:42;4.72;;;2.35;;
75890;SDS011;64571;47.512;19.054;2023-08-30T15:32:45;4.80;;;1.90;;
75890;SDS011;64571;47.512;19.054;2023-08-30T15:35:48;4.62;;;2.10;;
75890;SDS011;64571;47.512;19.054;2023-08-30T15:38:50;4.43;;;2.03;;
75890;SDS011;64571;47.512;19.054;2023-08-30T15:41:53;7.70;;;2.95;;
75890;SDS011;64571;47.512;19.054;2023-08-30T15:44:55;22.62;;;2.75;;
75890;SDS011;64571;47.512;19.054;2023-08-30T15:47:58;5.20;;;1.73;;
75890;SDS011;64571;47.512;19.054;2023-08-30T15:51:01;5.90;;;2.53;;
75890;SDS011;64571;47.512;19.054;2023-08-30T15:54:05;4.95;;;1.95;;
75890;SDS011;64571;47.512;19.054;2023-08-30T15:57:08;5.82;;;1.90;;
75890;SDS011;64571;47.512;19.054;2023-08-30T16:00:11;6.90;;;2.62;;
75890;SDS011;64571;47.512;19.054;2023-08-30T16:03:15;8.20;;;2.20;;
75890;SDS011;64571;47.512;19.054;2023-08-30T16:06:18;6.28;;;3.53;;
75890;SDS011;64571;47.512;19.054;2023-08-30T16:09:21;4.90;;;2.12;;
75890;SDS011;64571;47.512;19.054;2023-08-30T16:12:23;7.70;;;3.30;;
75890;SDS011;64571;47.512;19.054;2023-08-30T16:15:26;8.23;;;2.33;;
75890;SDS011;64571;47.512;19.054;2023-08-30T16:18:29;5.20;;;2.67;;
75890;SDS011;64571;47.512;19.054;2023-08-30T16:21:34;5.20;;;2.50;;
75890;SDS011;64571;47.512;19.054;2023-08-30T16:24:36;6.30;;;3.00;;
75890;SDS011;64571;47.512;19.054;2023-08-30T16:27:39;5.57;;;2.00;;
75890;SDS011;64571;47.512;19.054;2023-08-30T16:30:41;4.72;;;2.30;;
75890;SDS011;64571;47.512;19.054;2023-08-30T16:33:44;6.23;;;2.10;;
75890;SDS011;64571;47.512;19.054;2023-08-30T16:36:47;5.65;;;2.87;;
75890;SDS011;64571;47.512;19.054;2023-08-30T16:39:51;4.97;;;2.17;;
75890;SDS011;64571;47.512;19.054;2023-08-30T16:42:53;4.93;;;2.15;;
75890;SDS011;64571;47.512;19.054;2023-08-30T16:45:56;4.78;;;2.28;;
75890;SDS011;64571;47.512;19.054;2023-08-30T16:49:02;4.90;;;2.60;;
75890;SDS011;64571;47.512;19.054;2023-08-30T16:52:05;5.40;;;2.80;;
75890;SDS011;64571;47.512;19.054;2023-08-30T16:55:08;7.45;;;2.80;;
75890;SDS011;64571;47.512;19.054;2023-08-30T16:58:11;7.62;;;2.28;;
75890;SDS011;64571;47.512;19.054;2023-08-30T17:01:14;4.82;;;2.42;;
75890;SDS011;64571;47.512;19.054;2023-08-30T17:04:17;4.43;;;2.00;;
75890;SDS011;64571;47.512;19.054;2023-08-30T17:07:20;5.32;;;2.00;;
75890;SDS011;64571;47.512;19.054;2023-08-30T17:10:23;6.55;;;2.45;;
75890;SDS011;64571;47.512;19.054;2023-08-30T17:13:25;6.50;;;2.58;;
75890;SDS011;64571;47.512;19.054;2023-08-30T17:16:32;4.28;;;2.00;;
75890;SDS011;64571;47.512;19.054;2023-08-30T17:19:34;5.80;;;2.10;;
75890;SDS011;64571;47.512;19.054;2023-08-30T17:22:37;5.25;;;2.00;;
75890;SDS011;64571;47.512;19.054;2023-08-30T17:25:40;5.37;;;2.03;;
75890;SDS011;64571;47.512;19.054;2023-08-30T17:28:42;5.35;;;2.60;;
75890;SDS011;64571;47.512;19.054;2023-08-30T17:31:45;5.40;;;1.98;;
75890;SDS011;64571;47.512;19.054;2023-08-30T17:34:48;4.40;;;2.00;;
75890;SDS011;64571;47.512;19.054;2023-08-30T17:37:51;6.00;;;2.08;;
75890;SDS011;64571;47.512;19.054;2023-08-30T17:40:54;7.20;;;2.60;;
75890;SDS011;64571;47.512;19.054;2023-08-30T17:43:56;4.68;;;2.10;;
75890;SDS011;64571;47.512;19.054;2023-08-30T17:47:00;5.35;;;2.55;;
75890;SDS011;64571;47.512;19.054;2023-08-30T17:50:03;5.93;;;2.90;;
75890;SDS011;64571;47.512;19.054;2023-08-30T17:53:06;4.93;;;2.67;;
75890;SDS011;64571;47.512;19.054;2023-08-30T17:56:09;7.80;;;2.50;;
75890;SDS011;64571;47.512;19.054;2023-08-30T17:59:12;4.60;;;2.10;;
75890;SDS011;64571;47.512;19.054;2023-08-30T18:02:15;5.32;;;2.65;;
75890;SDS011;64571;47.512;19.054;2023-08-30T18:05:18;6.03;;;2.30;;
75890;SDS011;64571;47.512;19.054;2023-08-30T18:08:20;4.53;;;2.17;;
75890;SDS011;64571;47.512;19.054;2023-08-30T18:11:24;7.47;;;2.78;;
75890;SDS011;64571;47.512;19.054;2023-08-30T18:14:27;5.78;;;2.87;;